Time;durP1;ratioP1;P1;durP2;ratioP2;P2;SDS_P1;SDS_P2;PMS_P1;PMS_P2;Temp;Humidity;BMP_temperature;BMP_pressure;BME280_temperature;BME280_humidity;BME280_pressure;Samples;Min_cycle;Max_cycle;Signal;HPM_P1;HPM_P2
2022/11/15 00:00:17;;;;;;;3.13;2.93;;;20.30;42.00;;;;;;5057165;28;20256;-63
2022/11/15 00:02:42;;;;;;;3.30;3.10;;;20.30;41.90;;;;;;5053213;28;20300;-62
2022/11/15 00:05:08;;;;;;;3.33;3.13;;;20.30;42.00;;;;;;5055944;28;20523;-63
2022/11/15 00:07:33;;;;;;;3.03;2.83;;;20.30;41.90;;;;;;5056149;28;20221;-63
2022/11/15 00:09:59;;;;;;;2.90;2.70;;;20.30;42.00;;;;;;5059080;28;20245;-63
2022/11/15 00:12:24;;;;;;;2.60;2.50;;;20.30;42.00;;;;;;5057270;28;20221;-63
2022/11/15 00:14:50;;;;;;;2.67;2.57;;;20.30;41.90;;;;;;5055574;28;20221;-63
2022/11/15 00:17:15;;;;;;;3.30;3.10;;;20.30;42.00;;;;;;5056882;28;20209;-63
2022/11/15 00:19:41;;;;;;;3.30;3.10;;;20.20;41.90;;;;;;5056508;28;20225;-63
2022/11/15 00:22:06;;;;;;;3.33;3.13;;;20.20;41.90;;;;;;5057231;28;20743;-62
2022/11/15 00:24:32;;;;;;;2.77;2.60;;;20.20;41.90;;;;;;5058801;28;20236;-62
2022/11/15 00:26:57;;;;;;;2.87;2.70;;;20.20;41.90;;;;;;5057895;28;20213;-62
2022/11/15 00:29:23;;;;;;;2.77;2.67;;;20.30;42.00;;;;;;5063393;28;20228;-63
2022/11/15 00:31:48;;;;;;;3.03;2.83;;;20.20;41.90;;;;;;5062082;28;20557;-62
2022/11/15 00:34:14;;;;;;;3.83;3.63;;;20.20;41.90;;;;;;5057011;28;20634;-62
2022/11/15 00:36:39;;;;;;;2.80;2.70;;;20.20;41.90;;;;;;5060608;28;20340;-62
2022/11/15 00:39:05;;;;;;;3.00;2.80;;;20.30;42.00;;;;;;5061463;28;20217;-63
2022/11/15 00:41:31;;;;;;;3.57;3.37;;;20.20;41.90;;;;;;5059536;28;20661;-62
2022/11/15 00:43:56;;;;;;;3.33;3.13;;;20.20;42.70;;;;;;5058177;28;20687;-63
2022/11/15 00:46:22;;;;;;;3.17;2.97;;;20.20;41.90;;;;;;5056031;28;20708;-63
2022/11/15 00:48:47;;;;;;;2.80;2.60;;;20.20;41.90;;;;;;5055054;28;20260;-62
2022/11/15 00:51:13;;;;;;;3.00;2.90;;;20.20;41.90;;;;;;5056063;28;20336;-62
2022/11/15 00:53:39;;;;;;;3.40;3.20;;;20.20;41.90;;;;;;5058549;28;20240;-62
2022/11/15 00:56:04;;;;;;;2.60;2.50;;;20.20;41.90;;;;;;5061796;28;20241;-62
2022/11/15 00:58:30;;;;;;;2.57;2.47;;;20.20;41.90;;;;;;5059755;28;21055;-62
2022/11/15 01:00:55;;;;;;;3.00;2.80;;;20.20;41.90;;;;;;5052707;28;20222;-63
2022/11/15 01:03:21;;;;;;;2.60;2.50;;;20.20;41.90;;;;;;5054459;28;20217;-63
2022/11/15 01:05:47;;;;;;;3.10;2.90;;;20.20;41.90;;;;;;5055088;28;20209;-62
2022/11/15 01:08:16;;;;;;;3.37;3.17;;;20.20;41.90;;;;;;5055469;28;20727;-62
2022/11/15 01:10:42;;;;;;;3.30;3.10;;;20.20;42.00;;;;;;5052810;28;20283;-62
2022/11/15 01:13:07;;;;;;;2.83;2.73;;;20.20;41.90;;;;;;5063057;28;20971;-62
2022/11/15 01:15:33;;;;;;;2.87;2.67;;;20.20;41.90;;;;;;5060919;28;20462;-63
2022/11/15 01:17:59;;;;;;;3.67;3.47;;;20.20;41.90;;;;;;5060354;28;20633;-62
2022/11/15 01:20:24;;;;;;;3.10;2.90;;;20.20;41.90;;;;;;5057253;28;20229;-62
2022/11/15 01:22:50;;;;;;;3.07;2.87;;;20.20;42.00;;;;;;5061616;28;20229;-63
2022/11/15 01:25:15;;;;;;;2.40;2.30;;;20.20;42.00;;;;;;5061044;28;20221;-62
2022/11/15 01:27:41;;;;;;;3.70;3.50;;;20.20;42.00;;;;;;5060312;28;20711;-62
2022/11/15 01:30:08;;;;;;;2.97;2.77;;;20.20;41.90;;;;;;5061701;28;20269;-62
2022/11/15 01:32:33;;;;;;;2.80;2.60;;;20.20;41.90;;;;;;5059236;28;20552;-62
2022/11/15 01:34:59;;;;;;;3.07;2.87;;;20.20;41.90;;;;;;5060320;28;20858;-62
2022/11/15 01:37:24;;;;;;;3.63;2.70;;;20.20;42.00;;;;;;5060096;28;20261;-63
2022/11/15 01:39:50;;;;;;;3.47;2.83;;;20.20;42.00;;;;;;5061778;28;20229;-63
2022/11/15 01:42:16;;;;;;;3.10;3.00;;;20.20;42.00;;;;;;5059563;28;20221;-62
2022/11/15 01:44:47;;;;;;;2.33;2.23;;;20.20;42.00;;;;;;5060418;28;20229;-62
2022/11/15 01:47:20;;;;;;;3.00;2.80;;;20.20;42.00;;;;;;5058988;28;20221;-63
2022/11/15 01:49:54;;;;;;;3.17;2.97;;;20.20;41.90;;;;;;5059819;28;20548;-62
2022/11/15 01:52:21;;;;;;;2.60;2.50;;;20.20;42.00;;;;;;5057027;28;20429;-63
2022/11/15 01:54:50;;;;;;;2.80;2.70;;;20.20;42.00;;;;;;5043353;28;20457;-62
2022/11/15 01:57:16;;;;;;;2.50;2.30;;;20.20;42.00;;;;;;5058470;28;20450;-62
2022/11/15 01:59:44;;;;;;;3.07;2.87;;;20.20;42.00;;;;;;5059870;28;20459;-63
2022/11/15 02:02:10;;;;;;;2.40;2.30;;;20.20;42.00;;;;;;5059773;28;20284;-62
2022/11/15 02:04:44;;;;;;;2.50;2.30;;;20.20;42.00;;;;;;5061165;28;20490;-62
2022/11/15 02:07:14;;;;;;;3.10;2.90;;;20.20;42.00;;;;;;5060524;28;20260;-62
2022/11/15 02:09:40;;;;;;;2.87;2.77;;;20.20;42.00;;;;;;5059447;28;20437;-62
2022/11/15 02:12:08;;;;;;;2.80;2.60;;;20.20;42.00;;;;;;5061083;28;20984;-63
2022/11/15 02:14:35;;;;;;;2.63;2.53;;;20.20;42.00;;;;;;5060172;28;20328;-63
2022/11/15 02:17:39;;;;;;;3.33;3.13;;;20.20;42.10;;;;;;5039808;28;20429;-62
2022/11/15 02:20:28;;;;;;;2.63;2.53;;;20.20;42.00;;;;;;5058768;28;21276;-62
2022/11/15 02:23:14;;;;;;;2.60;2.50;;;20.20;42.00;;;;;;5055595;28;20504;-63
2022/11/15 02:26:07;;;;;;;2.80;2.60;;;20.20;42.00;;;;;;5054543;28;21525;-62
2022/11/15 02:28:58;;;;;;;3.20;3.00;;;20.20;42.10;;;;;;5056695;28;20458;-63
2022/11/15 02:31:57;;;;;;;2.87;2.70;;;20.20;42.10;;;;;;5057261;28;20454;-62
2022/11/15 02:34:35;;;;;;;2.50;2.40;;;20.20;42.10;;;;;;5058917;28;20507;-63
2022/11/15 02:37:20;;;;;;;2.57;2.10;;;20.20;42.10;;;;;;5058512;28;20572;-62
2022/11/15 02:39:55;;;;;;;2.77;2.67;;;20.20;42.00;;;;;;5059756;28;20456;-63
2022/11/15 02:45:17;;;;;;;2.77;2.67;;;20.20;42.10;;;;;;5059588;28;21189;-63
2022/11/15 02:47:45;;;;;;;3.13;2.93;;;20.20;42.10;;;;;;5058260;28;20458;-62
2022/11/15 02:50:15;;;;;;;2.47;2.27;;;20.20;42.10;;;;;;5054374;28;20449;-62
2022/11/15 02:52:41;;;;;;;2.77;2.67;;;20.20;42.10;;;;;;5059405;28;20437;-62
2022/11/15 02:55:27;;;;;;;2.40;2.30;;;20.20;42.20;;;;;;5060064;28;20945;-63
2022/11/15 02:58:19;;;;;;;2.80;2.60;;;20.20;42.10;;;;;;5057703;28;20282;-62
2022/11/15 03:01:12;;;;;;;2.77;2.67;;;20.20;42.10;;;;;;5059545;28;20454;-62
2022/11/15 03:03:54;;;;;;;2.17;2.07;;;20.20;42.10;;;;;;5053007;28;20462;-62
2022/11/15 03:06:19;;;;;;;2.30;2.20;;;20.20;42.10;;;;;;5054745;28;20458;-62
2022/11/15 03:09:03;;;;;;;2.20;2.10;;;20.20;42.10;;;;;;5057796;28;20462;-62
2022/11/15 03:11:32;;;;;;;2.40;2.30;;;20.20;42.10;;;;;;5051092;28;20217;-62
2022/11/15 03:14:27;;;;;;;2.57;2.37;;;20.20;42.20;;;;;;5052809;28;20470;-63
2022/11/15 03:17:22;;;;;;;2.70;2.60;;;20.20;42.10;;;;;;5052468;28;21305;-62
2022/11/15 03:19:54;;;;;;;2.40;2.30;;;20.20;42.10;;;;;;5033258;28;21020;-63
2022/11/15 03:22:22;;;;;;;2.87;2.67;;;20.20;42.10;;;;;;5034010;28;20455;-63
2022/11/15 03:24:54;;;;;;;2.67;2.57;;;20.20;42.10;;;;;;5036307;28;20437;-62
2022/11/15 03:27:25;;;;;;;2.60;2.50;;;20.20;42.10;;;;;;5037790;28;20501;-62
2022/11/15 03:29:54;;;;;;;2.90;2.70;;;20.20;42.20;;;;;;5034680;28;20956;-62
2022/11/15 03:32:26;;;;;;;2.37;2.27;;;20.20;42.10;;;;;;5040227;28;20480;-63
2022/11/15 03:35:03;;;;;;;2.40;2.30;;;20.20;42.10;;;;;;5039405;28;20850;-63
2022/11/15 03:37:46;;;;;;;2.73;2.57;;;20.20;42.10;;;;;;5036974;28;21024;-63
2022/11/15 03:40:13;;;;;;;2.50;2.40;;;20.20;42.10;;;;;;5038719;28;20458;-63
2022/11/15 03:43:04;;;;;;;2.67;2.57;;;20.20;42.10;;;;;;5033366;28;20467;-62
2022/11/15 03:45:37;;;;;;;2.40;2.30;;;20.20;42.10;;;;;;5031709;28;21581;-62
2022/11/15 03:48:10;;;;;;;2.70;2.50;;;20.20;42.20;;;;;;5037459;28;20455;-62
2022/11/15 03:50:36;;;;;;;2.50;2.40;;;20.20;42.20;;;;;;5038495;28;20470;-63
2022/11/15 03:53:02;;;;;;;2.63;2.53;;;20.20;42.20;;;;;;5038388;28;20458;-63
2022/11/15 03:55:28;;;;;;;3.07;2.47;;;20.20;42.10;;;;;;5038652;28;20448;-63
2022/11/15 03:57:58;;;;;;;2.37;2.27;;;20.20;42.10;;;;;;5042413;28;20970;-62
2022/11/15 04:00:23;;;;;;;2.70;2.60;;;20.20;42.20;;;;;;5040138;28;20743;-62
2022/11/15 04:02:49;;;;;;;2.47;2.37;;;20.20;42.20;;;;;;5044736;28;20434;-62
2022/11/15 04:05:14;;;;;;;2.73;2.53;;;20.20;42.20;;;;;;5041772;28;20225;-62
2022/11/15 04:07:40;;;;;;;2.40;2.30;;;20.20;42.10;;;;;;5042498;28;20222;-63
2022/11/15 04:10:06;;;;;;;2.70;2.60;;;20.20;42.10;;;;;;5041921;28;20386;-63
2022/11/15 04:12:37;;;;;;;2.27;2.17;;;20.20;42.20;;;;;;5041970;28;20324;-62
2022/11/15 04:15:07;;;;;;;4.30;2.47;;;20.20;42.20;;;;;;5037223;28;20433;-63
2022/11/15 04:17:37;;;;;;;2.50;2.40;;;20.20;42.20;;;;;;5040949;28;20478;-62
2022/11/15 04:25:43;;;;;;;2.40;2.30;;;20.20;42.20;;;;;;5018901;28;20484;-63
2022/11/15 04:28:09;;;;;;;2.50;2.40;;;20.20;42.20;;;;;;5058265;28;20428;-63
2022/11/15 04:30:35;;;;;;;2.47;2.37;;;20.10;42.00;;;;;;5060326;28;20485;-62
2022/11/15 04:33:01;;;;;;;2.30;2.20;;;20.10;42.10;;;;;;5059569;28;20797;-63
2022/11/15 04:35:27;;;;;;;2.50;2.30;;;20.20;42.20;;;;;;5056834;28;20260;-63
2022/11/15 04:37:53;;;;;;;2.50;2.30;;;20.10;42.00;;;;;;5062410;28;20225;-63
2022/11/15 04:40:18;;;;;;;2.10;2.00;;;20.10;42.00;;;;;;5063581;28;20786;-64
2022/11/15 04:42:44;;;;;;;2.40;2.30;;;20.20;42.10;;;;;;5062050;28;20224;-62
2022/11/15 04:45:09;;;;;;;2.10;2.00;;;20.20;42.10;;;;;;5060430;28;20221;-63
2022/11/15 04:47:35;;;;;;;2.67;2.47;;;20.20;42.10;;;;;;5063443;28;20220;-63
2022/11/15 04:50:01;;;;;;;2.10;2.00;;;20.20;42.20;;;;;;5061440;28;20264;-63
2022/11/15 04:52:26;;;;;;;2.57;2.47;;;20.20;42.10;;;;;;5062547;28;20217;-63
2022/11/15 04:54:52;;;;;;;2.30;2.20;;;20.20;42.10;;;;;;5061618;28;20240;-63
2022/11/15 04:57:17;;;;;;;2.30;2.20;;;20.20;42.10;;;;;;5064435;28;20225;-63
2022/11/15 04:59:43;;;;;;;2.30;2.20;;;20.20;42.10;;;;;;5058498;28;20230;-63
2022/11/15 05:02:08;;;;;;;2.20;2.10;;;20.20;42.10;;;;;;5052846;28;20766;-63
2022/11/15 05:04:34;;;;;;;2.10;1.90;;;20.20;42.10;;;;;;5058121;28;20665;-63
2022/11/15 05:07:00;;;;;;;2.30;2.20;;;20.20;42.00;;;;;;5043849;28;20313;-63
2022/11/15 05:09:25;;;;;;;2.50;2.40;;;20.20;42.00;;;;;;5058344;28;20225;-63
2022/11/15 05:11:51;;;;;;;2.60;2.50;;;20.30;42.10;;;;;;5059001;28;20278;-63
2022/11/15 05:14:16;;;;;;;2.53;2.37;;;20.30;42.10;;;;;;5041559;28;21050;-63
2022/11/15 05:16:42;;;;;;;2.10;2.00;;;20.30;42.00;;;;;;5061506;28;21218;-63
2022/11/15 05:19:08;;;;;;;2.47;2.27;;;20.30;42.00;;;;;;5057832;28;20260;-63
2022/11/15 05:21:34;;;;;;;2.50;2.40;;;20.30;42.00;;;;;;5058983;28;20231;-63
2022/11/15 05:24:00;;;;;;;2.50;2.40;;;20.30;42.00;;;;;;5054426;28;20217;-63
2022/11/15 05:26:26;;;;;;;2.57;2.47;;;20.30;41.90;;;;;;5054468;28;21919;-63
2022/11/15 05:28:56;;;;;;;2.00;1.90;;;20.30;41.90;;;;;;5053980;28;20514;-63
2022/11/15 05:31:22;;;;;;;2.30;2.20;;;20.30;42.00;;;;;;5056680;28;20234;-63
2022/11/15 05:33:50;;;;;;;2.53;2.43;;;20.30;42.00;;;;;;5058296;28;20461;-63
2022/11/15 05:36:24;;;;;;;2.70;2.50;;;20.30;41.90;;;;;;5060022;28;20462;-63
2022/11/15 05:38:50;;;;;;;2.60;2.40;;;20.30;41.90;;;;;;5060797;28;20466;-63
2022/11/15 05:41:19;;;;;;;6.33;2.17;;;20.30;41.80;;;;;;5057803;28;20445;-64
2022/11/15 05:43:48;;;;;;;2.33;2.10;;;20.30;41.90;;;;;;5054931;28;20439;-64
2022/11/15 05:46:14;;;;;;;2.17;2.07;;;20.30;41.90;;;;;;5055609;28;20926;-64
2022/11/15 05:48:42;;;;;;;2.00;1.90;;;20.30;41.90;;;;;;5054904;28;20504;-63
2022/11/15 05:51:08;;;;;;;2.33;2.13;;;20.30;41.80;;;;;;5061355;28;20234;-63
2022/11/15 05:53:35;;;;;;;2.10;2.00;;;20.30;41.80;;;;;;5053433;28;20461;-63
2022/11/15 05:56:03;;;;;;;2.27;2.10;;;20.30;41.80;;;;;;5052599;28;20221;-63
2022/11/15 05:58:28;;;;;;;2.30;2.20;;;20.30;41.80;;;;;;5054268;28;20466;-64
2022/11/15 06:00:54;;;;;;;2.53;2.33;;;20.30;41.90;;;;;;5053557;28;20473;-62
2022/11/15 06:03:20;;;;;;;2.23;2.13;;;20.30;41.90;;;;;;5038748;28;20225;-62
2022/11/15 06:05:45;;;;;;;2.30;2.20;;;20.30;41.90;;;;;;5057647;28;20450;-61
2022/11/15 06:08:11;;;;;;;2.60;2.40;;;20.30;42.00;;;;;;5059135;28;20236;-63
2022/11/15 06:10:36;;;;;;;2.60;2.40;;;20.30;42.00;;;;;;5053104;28;20225;-62
2022/11/15 06:13:04;;;;;;;2.10;2.00;;;20.30;41.90;;;;;;5036331;28;20213;-62
2022/11/15 06:15:29;;;;;;;2.90;2.43;;;20.30;41.90;;;;;;5057262;28;20298;-61
2022/11/15 06:17:58;;;;;;;2.30;2.20;;;20.30;42.00;;;;;;5052537;28;20581;-61
2022/11/15 06:20:28;;;;;;;2.50;2.40;;;20.30;41.90;;;;;;5055729;28;20316;-59
2022/11/15 06:23:01;;;;;;;2.30;2.20;;;20.40;42.00;;;;;;5056245;28;20436;-62
2022/11/15 06:25:28;;;;;;;2.67;2.20;;;20.30;41.90;;;;;;5058266;28;20469;-63
2022/11/15 06:27:55;;;;;;;2.20;2.10;;;20.40;42.00;;;;;;5054132;28;20996;-63
2022/11/15 06:30:22;;;;;;;2.30;2.20;;;20.30;42.00;;;;;;5057456;28;20516;-62
2022/11/15 06:32:48;;;;;;;2.20;2.10;;;20.40;42.00;;;;;;5061902;28;20439;-62
2022/11/15 06:35:14;;;;;;;3.00;2.40;;;20.30;42.00;;;;;;5057013;28;20432;-62
2022/11/15 06:37:40;;;;;;;2.60;2.50;;;20.40;42.00;;;;;;5061490;28;20221;-62
2022/11/15 06:40:07;;;;;;;2.10;2.00;;;20.30;42.00;;;;;;5044925;28;20515;-62
2022/11/15 06:42:32;;;;;;;2.40;2.20;;;20.30;42.00;;;;;;5060421;28;20433;-62
2022/11/15 06:44:58;;;;;;;2.30;2.03;;;20.30;42.80;;;;;;5059661;28;20476;-62
2022/11/15 06:47:23;;;;;;;2.43;2.20;;;20.30;42.00;;;;;;5061400;28;20226;-62
2022/11/15 06:49:49;;;;;;;2.00;1.90;;;20.30;42.00;;;;;;5063225;28;20673;-62
2022/11/15 06:52:14;;;;;;;2.63;2.43;;;20.30;42.00;;;;;;5062257;28;20220;-62
2022/11/15 06:54:40;;;;;;;2.10;2.00;;;20.30;42.10;;;;;;5061632;28;20311;-62
2022/11/15 06:57:05;;;;;;;2.13;1.93;;;20.30;42.00;;;;;;5059876;28;20288;-62
2022/11/15 06:59:31;;;;;;;3.50;2.37;;;20.30;42.00;;;;;;5056994;28;20226;-62
2022/11/15 07:01:56;;;;;;;2.50;2.40;;;20.30;42.10;;;;;;5042358;28;20302;-62
2022/11/15 07:04:22;;;;;;;2.30;2.20;;;20.30;42.10;;;;;;5060334;28;20252;-62
2022/11/15 07:06:48;;;;;;;3.23;2.53;;;20.30;42.00;;;;;;5063142;28;20225;-62
2022/11/15 07:09:13;;;;;;;1.97;1.87;;;20.30;42.00;;;;;;5060000;28;20228;-62
2022/11/15 07:11:39;;;;;;;2.23;2.13;;;20.30;42.80;;;;;;5062119;28;20313;-62
2022/11/15 07:14:05;;;;;;;2.33;2.23;;;20.40;42.10;;;;;;5062152;28;20217;-62
2022/11/15 07:16:30;;;;;;;1.90;1.80;;;20.30;42.10;;;;;;5057050;28;20221;-62
2022/11/15 07:18:56;;;;;;;1.90;1.80;;;20.30;42.10;;;;;;5060317;28;20238;-62
2022/11/15 07:21:21;;;;;;;1.90;1.80;;;20.30;42.00;;;;;;5042797;28;20214;-62
2022/11/15 07:23:47;;;;;;;2.50;2.30;;;20.30;42.10;;;;;;5056038;28;20228;-62
2022/11/15 07:26:12;;;;;;;2.10;1.90;;;20.30;42.10;;;;;;5062499;28;20228;-62
2022/11/15 07:28:38;;;;;;;3.30;2.10;;;20.30;42.10;;;;;;5060189;28;20260;-62
2022/11/15 07:31:05;;;;;;;3.90;2.20;;;20.30;42.10;;;;;;5061533;28;20273;-61
2022/11/15 07:33:31;;;;;;;2.00;1.80;;;20.30;42.00;;;;;;5061015;28;20745;-62
2022/11/15 07:36:01;;;;;;;2.90;2.23;;;20.30;42.10;;;;;;5060063;28;20424;-62
2022/11/15 07:38:27;;;;;;;2.13;2.03;;;20.30;42.10;;;;;;5052077;28;20312;-62
2022/11/15 07:40:58;;;;;;;2.23;2.03;;;20.30;42.10;;;;;;5057375;28;20458;-62
2022/11/15 07:43:24;;;;;;;2.00;1.90;;;20.30;42.10;;;;;;5052804;28;20443;-60
2022/11/15 07:45:50;;;;;;;1.70;1.60;;;20.30;42.10;;;;;;5058964;28;20444;-60
2022/11/15 07:48:15;;;;;;;1.90;1.80;;;20.30;42.10;;;;;;5061568;28;20433;-60
2022/11/15 07:50:42;;;;;;;3.80;2.10;;;20.30;42.10;;;;;;5059038;28;21005;-59
2022/11/15 07:53:09;;;;;;;2.40;2.30;;;20.30;42.00;;;;;;5055050;28;20304;-59
2022/11/15 07:55:35;;;;;;;2.00;1.90;;;20.30;42.10;;;;;;5054392;28;20454;-58
2022/11/15 07:58:05;;;;;;;1.77;1.67;;;20.30;42.00;;;;;;5055475;28;20458;-59
2022/11/15 08:00:31;;;;;;;1.90;1.80;;;20.30;42.10;;;;;;5058263;28;20334;-59
2022/11/15 08:03:11;;;;;;;1.80;1.70;;;20.30;42.10;;;;;;5060374;28;21256;-59
2022/11/15 08:05:38;;;;;;;2.07;1.97;;;20.30;42.10;;;;;;5058252;28;20466;-59
2022/11/15 08:08:04;;;;;;;1.93;1.83;;;20.30;42.10;;;;;;5057521;28;20959;-59
2022/11/15 08:10:30;;;;;;;1.90;1.80;;;20.30;42.10;;;;;;5059666;28;20473;-59
2022/11/15 08:13:04;;;;;;;2.53;2.33;;;20.30;42.10;;;;;;5061225;28;20462;-59
2022/11/15 08:15:30;;;;;;;1.97;1.70;;;20.30;42.10;;;;;;5060583;28;20753;-59
2022/11/15 08:18:02;;;;;;;1.90;1.80;;;20.30;42.10;;;;;;5060237;28;20561;-59
2022/11/15 08:20:29;;;;;;;4.60;1.80;;;20.30;42.10;;;;;;5055883;28;20480;-59
2022/11/15 08:23:00;;;;;;;2.00;1.90;;;20.30;42.10;;;;;;5055295;28;20465;-59
2022/11/15 08:25:27;;;;;;;2.03;1.80;;;20.30;42.10;;;;;;5060758;28;20492;-59
2022/11/15 08:27:54;;;;;;;1.77;1.67;;;20.30;42.20;;;;;;5060952;28;20450;-59
2022/11/15 08:30:20;;;;;;;1.90;1.80;;;20.30;42.20;;;;;;5060618;28;20532;-59
2022/11/15 08:32:45;;;;;;;2.43;1.93;;;20.30;42.10;;;;;;5061555;28;20475;-59
2022/11/15 08:35:11;;;;;;;1.70;1.60;;;20.30;42.20;;;;;;5060978;28;20213;-59
2022/11/15 08:37:37;;;;;;;1.80;1.70;;;20.30;42.20;;;;;;5062163;28;20235;-59
2022/11/15 08:40:03;;;;;;;1.90;1.80;;;20.30;42.20;;;;;;5059547;28;20741;-59
2022/11/15 08:42:29;;;;;;;1.53;1.43;;;20.30;42.20;;;;;;5062627;28;20255;-59
2022/11/15 08:44:54;;;;;;;1.90;1.80;;;20.30;42.20;;;;;;5062983;28;20462;-61
2022/11/15 08:47:20;;;;;;;3.17;2.40;;;20.30;42.20;;;;;;5066317;28;20221;-59
2022/11/15 08:49:45;;;;;;;1.83;1.73;;;20.30;42.30;;;;;;5063675;28;20242;-59
2022/11/15 08:52:11;;;;;;;1.77;1.67;;;20.30;42.30;;;;;;5064418;28;20218;-59
2022/11/15 08:54:36;;;;;;;1.87;1.77;;;20.30;42.30;;;;;;5048295;28;20298;-59
2022/11/15 08:57:02;;;;;;;1.80;1.70;;;20.30;42.20;;;;;;5043959;28;20582;-59
2022/11/15 08:59:27;;;;;;;1.80;1.70;;;20.30;42.30;;;;;;5056314;28;20229;-61
2022/11/15 09:01:53;;;;;;;1.60;1.50;;;20.30;42.30;;;;;;5059176;28;20270;-59
2022/11/15 09:04:18;;;;;;;1.60;1.50;;;20.30;42.30;;;;;;5062309;28;20217;-58
2022/11/15 09:06:44;;;;;;;1.80;1.70;;;20.30;42.30;;;;;;5060849;28;20822;-58
2022/11/15 09:09:09;;;;;;;1.70;1.60;;;20.30;42.40;;;;;;5061586;28;20233;-58
2022/11/15 09:11:35;;;;;;;1.77;1.67;;;20.30;42.30;;;;;;5058324;28;20254;-59
2022/11/15 09:14:01;;;;;;;2.03;1.83;;;20.30;42.30;;;;;;5059547;28;20569;-58
2022/11/15 09:16:26;;;;;;;1.70;1.60;;;20.30;42.30;;;;;;5060406;28;20275;-59
2022/11/15 09:18:54;;;;;;;3.73;1.80;;;20.30;42.40;;;;;;5061145;28;20251;-58
2022/11/15 09:21:19;;;;;;;1.80;1.70;;;20.30;42.40;;;;;;5062925;28;20815;-59
2022/11/15 09:23:46;;;;;;;2.20;2.00;;;20.30;42.30;;;;;;5060655;28;20436;-58
2022/11/15 09:26:11;;;;;;;1.50;1.40;;;20.30;42.40;;;;;;5061517;28;20225;-58
2022/11/15 09:28:37;;;;;;;1.80;1.70;;;20.30;42.40;;;;;;5060365;28;20454;-58
2022/11/15 09:31:05;;;;;;;1.63;1.53;;;20.30;42.40;;;;;;5060709;28;20221;-58
2022/11/15 09:33:31;;;;;;;3.70;1.97;;;20.30;42.40;;;;;;5059380;28;20943;-58
2022/11/15 09:36:05;;;;;;;1.83;1.73;;;20.30;42.40;;;;;;5060614;28;20439;-58
2022/11/15 09:38:31;;;;;;;2.70;2.13;;;20.30;42.40;;;;;;5063311;28;20217;-59
2022/11/15 09:41:12;;;;;;;1.60;1.50;;;20.30;42.40;;;;;;5051913;28;20549;-58
2022/11/15 09:43:59;;;;;;;1.57;1.47;;;20.30;42.40;;;;;;5054462;28;20851;-58
2022/11/15 09:46:34;;;;;;;1.70;1.60;;;20.30;42.40;;;;;;5060468;28;20428;-59
2022/11/15 09:49:01;;;;;;;1.90;1.80;;;20.30;42.40;;;;;;5057692;28;20554;-59
2022/11/15 09:51:47;;;;;;;2.00;1.90;;;20.30;42.50;;;;;;5056701;28;20445;-59
2022/11/15 09:54:31;;;;;;;1.70;1.60;;;20.30;42.40;;;;;;5057858;28;20478;-59
2022/11/15 09:57:05;;;;;;;1.63;1.53;;;20.30;42.50;;;;;;5054931;28;20458;-59
2022/11/15 09:59:43;;;;;;;1.93;1.57;;;20.30;42.50;;;;;;5057661;28;20453;-58
2022/11/15 10:02:36;;;;;;;2.00;1.90;;;20.30;42.50;;;;;;5057744;28;20465;-59
2022/11/15 10:05:02;;;;;;;1.60;1.50;;;20.30;42.60;;;;;;5055933;28;20433;-59
2022/11/15 10:07:33;;;;;;;1.70;1.60;;;20.30;42.50;;;;;;5058193;28;20443;-58
2022/11/15 10:10:25;;;;;;;4.90;1.70;;;20.30;42.50;;;;;;5059339;28;21057;-59
2022/11/15 10:12:51;;;;;;;1.90;1.80;;;20.30;42.50;;;;;;5059718;28;21013;-58
2022/11/15 10:15:23;;;;;;;1.60;1.50;;;20.30;42.60;;;;;;5057881;28;20425;-59
2022/11/15 10:18:15;;;;;;;1.60;1.50;;;20.30;42.60;;;;;;5057734;28;20482;-60
2022/11/15 10:21:24;;;;;;;1.70;1.60;;;20.30;42.60;;;;;;5055844;28;20473;-62
2022/11/15 10:23:50;;;;;;;2.03;1.50;;;20.30;42.50;;;;;;4951502;28;20591;-61
2022/11/15 10:26:17;;;;;;;1.90;1.60;;;20.30;42.60;;;;;;5036509;28;20450;-61
2022/11/15 10:28:43;;;;;;;1.60;1.50;;;20.30;42.60;;;;;;5061343;28;20460;-61
2022/11/15 10:31:24;;;;;;;1.93;1.77;;;20.30;42.60;;;;;;5061706;28;20744;-61
2022/11/15 10:33:51;;;;;;;1.90;1.80;;;20.30;42.60;;;;;;5058842;28;20577;-61
2022/11/15 10:36:20;;;;;;;1.83;1.73;;;20.30;42.60;;;;;;5059398;28;20449;-61
2022/11/15 10:38:48;;;;;;;1.30;1.20;;;20.30;43.40;;;;;;5061384;28;21333;-61
2022/11/15 10:41:20;;;;;;;1.47;1.37;;;20.30;42.60;;;;;;5056729;28;20504;-59
2022/11/15 10:44:02;;;;;;;1.40;1.30;;;20.30;42.60;;;;;;5053683;28;20454;-59
2022/11/15 10:46:28;;;;;;;1.40;1.30;;;20.30;42.60;;;;;;5059597;28;20424;-59
2022/11/15 10:49:16;;;;;;;1.50;1.40;;;20.30;42.60;;;;;;5060582;28;20549;-59
2022/11/15 10:51:54;;;;;;;1.57;1.47;;;20.30;42.60;;;;;;5062331;28;21028;-59
2022/11/15 10:54:57;;;;;;;1.70;1.60;;;20.30;42.60;;;;;;5059615;28;20438;-60
2022/11/15 10:57:29;;;;;;;1.60;1.50;;;20.30;42.60;;;;;;5041544;28;20528;-59
2022/11/15 11:00:25;;;;;;;1.70;1.60;;;20.30;42.60;;;;;;5061102;28;21403;-59
2022/11/15 11:02:56;;;;;;;1.40;1.30;;;20.30;42.60;;;;;;5057567;28;20466;-60
2022/11/15 11:05:27;;;;;;;2.03;1.30;;;20.30;42.60;;;;;;5061592;28;20992;-59
2022/11/15 11:07:58;;;;;;;1.40;1.30;;;20.30;42.60;;;;;;5060507;28;20578;-60
2022/11/15 11:10:23;;;;;;;1.40;1.30;;;20.30;42.50;;;;;;5062137;28;20477;-59
2022/11/15 11:12:49;;;;;;;5.90;3.70;;;20.30;42.50;;;;;;5062107;28;20465;-59
2022/11/15 11:15:16;;;;;;;1.50;1.40;;;20.30;42.50;;;;;;5062168;28;20221;-59
2022/11/15 11:18:15;;;;;;;1.50;1.40;;;20.40;42.60;;;;;;5061290;28;20351;-59
2022/11/15 11:20:51;;;;;;;1.50;1.30;;;20.40;42.60;;;;;;5055282;28;20473;-59
2022/11/15 11:23:30;;;;;;;1.47;1.37;;;20.40;42.60;;;;;;5061554;28;20458;-59
2022/11/15 11:26:04;;;;;;;1.30;1.20;;;20.40;42.60;;;;;;5060454;28;20996;-59
2022/11/15 11:28:48;;;;;;;1.63;1.40;;;20.40;42.60;;;;;;5061681;28;20578;-59
2022/11/15 11:32:05;;;;;;;1.73;1.63;;;20.40;42.60;;;;;;5061206;28;20441;-59
2022/11/15 11:34:53;;;;;;;1.60;1.50;;;20.40;42.60;;;;;;5020468;28;20886;-58
2022/11/15 11:37:41;;;;;;;1.30;1.20;;;20.40;42.60;;;;;;5058104;28;20512;-59
2022/11/15 11:40:48;;;;;;;1.40;1.30;;;20.40;42.60;;;;;;5059161;28;20446;-59
2022/11/15 11:43:46;;;;;;;1.43;1.10;;;20.40;42.60;;;;;;5039193;28;20508;-59
2022/11/15 11:46:11;;;;;;;3.40;1.40;;;20.40;42.70;;;;;;5048079;28;20925;-59
2022/11/15 11:48:45;;;;;;;1.77;1.20;;;20.30;42.50;;;;;;5060137;28;20466;-59
2022/11/15 11:51:18;;;;;;;1.47;1.37;;;20.40;42.60;;;;;;5058711;28;20234;-59
2022/11/15 11:53:56;;;;;;;1.33;1.23;;;20.40;42.60;;;;;;5060028;28;21036;-59
2022/11/15 11:56:34;;;;;;;1.50;1.40;;;20.40;42.60;;;;;;5059218;28;20450;-60
2022/11/15 11:59:14;;;;;;;1.67;1.30;;;20.40;42.60;;;;;;5058391;28;20537;-59
2022/11/15 12:01:44;;;;;;;1.50;1.40;;;20.40;42.60;;;;;;5060514;28;20449;-59
2022/11/15 12:04:19;;;;;;;2.23;1.20;;;20.40;42.60;;;;;;5059528;28;20444;-59
2022/11/15 12:07:03;;;;;;;1.40;1.30;;;20.40;42.60;;;;;;5059566;28;21208;-59
2022/11/15 12:09:35;;;;;;;1.60;1.30;;;20.40;42.60;;;;;;5058571;28;20448;-59
2022/11/15 12:12:09;;;;;;;1.30;1.20;;;20.40;42.60;;;;;;5042501;28;20489;-59
2022/11/15 12:14:56;;;;;;;1.30;1.20;;;20.40;42.60;;;;;;5058326;28;20461;-59
2022/11/15 12:17:31;;;;;;;1.20;1.07;;;20.40;42.60;;;;;;5057556;28;20446;-59
2022/11/15 12:19:59;;;;;;;1.40;1.30;;;20.40;42.60;;;;;;5061805;28;20583;-59
2022/11/15 12:22:56;;;;;;;1.30;1.20;;;20.40;42.60;;;;;;5062110;28;20528;-59
2022/11/15 12:25:47;;;;;;;1.10;1.00;;;20.40;42.60;;;;;;5062471;28;20446;-59
2022/11/15 12:28:26;;;;;;;1.00;1.00;;;20.40;42.60;;;;;;5046134;28;20485;-59
2022/11/15 12:30:57;;;;;;;1.50;1.40;;;20.40;42.60;;;;;;5063069;28;20466;-59
2022/11/15 12:33:41;;;;;;;2.00;1.20;;;20.40;42.60;;;;;;5062501;28;20435;-60
2022/11/15 12:36:29;;;;;;;1.30;1.20;;;20.40;42.60;;;;;;5060151;28;20885;-59
2022/11/15 12:38:57;;;;;;;1.13;1.03;;;20.40;42.60;;;;;;5061466;28;20500;-59
2022/11/15 12:41:38;;;;;;;1.50;1.40;;;20.40;42.60;;;;;;5061728;28;21354;-59
2022/11/15 12:44:09;;;;;;;1.17;1.07;;;20.40;42.60;;;;;;5062852;28;20459;-59
2022/11/15 12:46:41;;;;;;;1.20;1.10;;;20.40;42.60;;;;;;5062944;28;20450;-59
2022/11/15 12:49:22;;;;;;;1.33;1.10;;;20.40;42.60;;;;;;5061437;28;20467;-59
2022/11/15 12:51:47;;;;;;;1.10;1.00;;;20.40;42.50;;;;;;5063421;28;20460;-59
2022/11/15 12:54:36;;;;;;;1.33;1.23;;;20.40;42.50;;;;;;5063401;28;20450;-59
2022/11/15 12:57:27;;;;;;;1.20;1.10;;;20.40;42.50;;;;;;5061603;28;20221;-59
2022/11/15 12:59:57;;;;;;;1.30;1.20;;;20.40;42.50;;;;;;5061818;28;20545;-60
2022/11/15 13:02:41;;;;;;;1.10;1.00;;;20.40;42.50;;;;;;5061224;28;20425;-59
2022/11/15 13:05:17;;;;;;;1.40;1.30;;;20.40;42.50;;;;;;5062950;28;20480;-59
2022/11/15 13:07:43;;;;;;;1.20;1.10;;;20.40;42.50;;;;;;5062634;28;20429;-59
2022/11/15 13:10:12;;;;;;;1.33;1.23;;;20.40;42.50;;;;;;5059238;28;20509;-59
2022/11/15 13:12:46;;;;;;;2.10;1.30;;;20.40;42.50;;;;;;5057862;28;20233;-59
2022/11/15 13:15:11;;;;;;;1.40;1.30;;;20.40;42.60;;;;;;5059208;28;20449;-58